Time;durP1;ratioP1;P1;durP2;ratioP2;P2;SDS_P1;SDS_P2;PMS_P1;PMS_P2;Temp;Humidity;BMP_temperature;BMP_pressure;BME280_temperature;BME280_humidity;BME280_pressure;Samples;Min_cycle;Max_cycle;Signal;HPM_P1;HPM_P2
2024/01/09 00:00:28;;;;;;;0.55;0.55;;;1.30;99.30;;;;;;5034245;28;20033;-71
2024/01/09 00:02:54;;;;;;;11.40;0.95;;;1.30;99.70;;;;;;5034547;28;21446;-70
2024/01/09 00:05:19;;;;;;;1.80;0.93;;;1.20;99.80;;;;;;5036367;28;20056;-70
2024/01/09 00:07:45;;;;;;;2.70;1.30;;;1.20;99.80;;;;;;5032099;28;20025;-70
2024/01/09 00:10:11;;;;;;;3.45;2.15;;;1.20;99.90;;;;;;5035235;28;20071;-70
2024/01/09 00:12:36;;;;;;;1.83;0.98;;;1.20;99.90;;;;;;5036769;28;20029;-70
2024/01/09 00:15:04;;;;;;;2.13;0.88;;;1.20;99.90;;;;;;5032709;28;20037;-70
2024/01/09 00:17:29;;;;;;;1.70;0.93;;;1.20;99.90;;;;;;5038260;28;20040;-71
2024/01/09 00:19:55;;;;;;;4.03;0.95;;;1.20;99.90;;;;;;5038274;28;20033;-71
2024/01/09 00:22:21;;;;;;;1.45;0.85;;;1.20;99.90;;;;;;5033889;28;20072;-70
2024/01/09 00:24:46;;;;;;;5.00;3.00;;;1.20;99.90;;;;;;5037543;28;20119;-71
2024/01/09 00:27:12;;;;;;;1.10;0.88;;;1.20;99.90;;;;;;5032920;28;20064;-70
2024/01/09 00:29:38;;;;;;;12.68;1.05;;;1.20;99.90;;;;;;5034937;28;20726;-71
2024/01/09 00:32:03;;;;;;;3.25;1.52;;;1.20;99.90;;;;;;5036231;28;20527;-70
2024/01/09 00:34:30;;;;;;;1.30;1.00;;;1.10;99.90;;;;;;5018278;28;20115;-70
2024/01/09 00:36:56;;;;;;;1.10;1.00;;;1.20;99.90;;;;;;5035269;28;20055;-71
2024/01/09 00:39:21;;;;;;;0.88;0.75;;;1.20;99.90;;;;;;5038804;28;20048;-70
2024/01/09 00:41:47;;;;;;;0.60;0.50;;;1.10;99.90;;;;;;5031323;28;20593;-71
2024/01/09 00:44:13;;;;;;;0.60;0.60;;;1.10;99.90;;;;;;5037963;28;20470;-70
2024/01/09 00:46:38;;;;;;;1.48;1.17;;;1.10;99.90;;;;;;5037880;28;20068;-69
2024/01/09 00:49:04;;;;;;;2.58;1.55;;;1.10;99.90;;;;;;5032895;28;20025;-70
2024/01/09 00:51:29;;;;;;;5.97;1.50;;;1.10;99.90;;;;;;5034039;28;20086;-70
2024/01/09 00:53:55;;;;;;;0.20;0.20;;;1.10;99.90;;;;;;5037886;28;20037;-71
2024/01/09 00:56:21;;;;;;;1.10;1.10;;;1.10;99.90;;;;;;5032804;28;20090;-70
2024/01/09 00:58:47;;;;;;;1.90;0.88;;;1.10;99.90;;;;;;5039303;28;20028;-71
2024/01/09 01:01:12;;;;;;;1.45;1.05;;;1.20;99.90;;;;;;5034699;28;20048;-70
2024/01/09 01:03:38;;;;;;;0.57;0.57;;;1.10;99.90;;;;;;5034342;28;20079;-71
2024/01/09 01:06:04;;;;;;;2.03;1.83;;;1.10;99.90;;;;;;5035319;28;20044;-70
2024/01/09 01:08:29;;;;;;;1.15;0.90;;;1.10;99.90;;;;;;5035309;28;20653;-70
2024/01/09 01:10:55;;;;;;;1.55;1.02;;;1.10;99.90;;;;;;5037897;28;20111;-70
2024/01/09 01:13:21;;;;;;;1.23;1.13;;;1.00;99.90;;;;;;5038452;28;20397;-70
2024/01/09 01:15:46;;;;;;;3.17;1.58;;;1.00;99.90;;;;;;5035791;28;20082;-70
2024/01/09 01:18:13;;;;;;;1.02;0.98;;;1.00;99.90;;;;;;5040455;28;20140;-71
2024/01/09 01:20:38;;;;;;;1.60;1.10;;;1.00;99.90;;;;;;5056626;28;20036;-71
2024/01/09 01:23:04;;;;;;;1.08;0.85;;;1.00;99.90;;;;;;5039035;28;20049;-72
2024/01/09 01:25:29;;;;;;;3.88;1.27;;;1.00;99.90;;;;;;5037113;28;20505;-69
2024/01/09 01:27:55;;;;;;;1.88;0.80;;;1.00;99.90;;;;;;5035234;28;20036;-70
2024/01/09 01:30:21;;;;;;;1.60;1.48;;;1.00;99.90;;;;;;5036101;28;20029;-71
2024/01/09 01:32:46;;;;;;;1.90;1.08;;;1.00;99.90;;;;;;5039165;28;20130;-70
2024/01/09 01:35:12;;;;;;;1.20;0.77;;;1.00;99.90;;;;;;5033575;28;20677;-71
2024/01/09 01:37:37;;;;;;;1.98;0.90;;;1.00;99.90;;;;;;5038215;28;20130;-71
2024/01/09 01:40:04;;;;;;;4.28;1.13;;;1.00;99.90;;;;;;5037718;28;20033;-71
2024/01/09 01:42:29;;;;;;;0.22;0.22;;;1.00;99.90;;;;;;5033566;28;20095;-71
2024/01/09 01:44:55;;;;;;;1.20;1.10;;;1.00;99.90;;;;;;5039317;28;20560;-71
2024/01/09 01:47:20;;;;;;;1.15;0.95;;;1.10;99.90;;;;;;5035460;28;20059;-70
2024/01/09 01:49:46;;;;;;;2.47;1.20;;;1.10;99.90;;;;;;5031622;28;20029;-70
2024/01/09 01:52:12;;;;;;;1.92;0.95;;;1.10;99.90;;;;;;5032905;28;20025;-70
2024/01/09 01:54:40;;;;;;;1.10;1.05;;;1.10;99.90;;;;;;5031504;28;20040;-70
2024/01/09 01:57:08;;;;;;;1.25;1.17;;;1.10;99.90;;;;;;5034340;28;20040;-70
2024/01/09 01:59:38;;;;;;;1.55;1.45;;;1.10;99.90;;;;;;5034150;28;20061;-71
2024/01/09 02:02:05;;;;;;;3.65;1.73;;;1.20;99.90;;;;;;5026911;28;20029;-71
2024/01/09 02:04:32;;;;;;;0.73;0.73;;;1.20;99.90;;;;;;5034867;28;20053;-71
2024/01/09 02:06:58;;;;;;;0.82;0.82;;;1.10;99.90;;;;;;5036354;28;20033;-71
2024/01/09 02:09:24;;;;;;;1.08;0.80;;;1.10;99.90;;;;;;5029024;28;20167;-71
2024/01/09 02:11:50;;;;;;;1.17;1.00;;;1.10;99.90;;;;;;5034376;28;20040;-71
2024/01/09 02:14:16;;;;;;;1.08;0.95;;;1.10;99.90;;;;;;5035397;28;20033;-70
2024/01/09 02:16:42;;;;;;;1.20;0.93;;;1.10;99.90;;;;;;5034397;28;20044;-71
2024/01/09 02:19:07;;;;;;;1.00;1.00;;;1.10;99.90;;;;;;5040134;28;20037;-70
2024/01/09 02:21:33;;;;;;;7.65;2.03;;;1.10;99.90;;;;;;5037752;28;20051;-70
2024/01/09 02:23:59;;;;;;;0.65;0.60;;;1.10;99.90;;;;;;5037483;28;20041;-70
2024/01/09 02:26:30;;;;;;;1.65;1.55;;;1.10;99.90;;;;;;5038857;28;20033;-71
2024/01/09 02:29:01;;;;;;;1.73;1.20;;;1.10;99.90;;;;;;5034564;28;20598;-70
2024/01/09 02:31:27;;;;;;;2.10;1.23;;;1.10;99.90;;;;;;5037481;28;20441;-71
2024/01/09 02:33:53;;;;;;;1.58;1.00;;;1.10;99.90;;;;;;5039534;28;20091;-70
2024/01/09 02:36:18;;;;;;;1.60;1.33;;;1.10;99.90;;;;;;5034995;28;20076;-70
2024/01/09 02:38:44;;;;;;;3.50;1.40;;;1.10;99.90;;;;;;5039130;28;20044;-71
2024/01/09 02:41:10;;;;;;;2.60;1.10;;;1.10;99.90;;;;;;5037777;28;20106;-71
2024/01/09 02:43:35;;;;;;;1.60;1.27;;;1.00;99.90;;;;;;5035997;28;20500;-71
2024/01/09 02:46:01;;;;;;;1.67;1.33;;;1.00;99.90;;;;;;5040229;28;20175;-70
2024/01/09 02:48:27;;;;;;;0.93;0.93;;;1.00;99.90;;;;;;5037073;28;20033;-72
2024/01/09 02:50:52;;;;;;;7.68;0.90;;;0.90;99.90;;;;;;5036263;28;20068;-70
2024/01/09 02:53:18;;;;;;;2.65;0.90;;;0.90;99.90;;;;;;5038664;28;20119;-70
2024/01/09 02:55:43;;;;;;;1.15;1.13;;;0.90;99.90;;;;;;5034540;28;20099;-72
2024/01/09 02:58:09;;;;;;;2.33;1.05;;;0.90;99.90;;;;;;5038007;28;20439;-71
2024/01/09 03:00:35;;;;;;;0.85;0.80;;;0.90;99.90;;;;;;5038328;28;20041;-70
2024/01/09 03:03:00;;;;;;;1.67;1.42;;;0.90;99.90;;;;;;5029744;28;20438;-71
2024/01/09 03:05:26;;;;;;;2.17;1.67;;;0.90;99.90;;;;;;5039516;28;20082;-71
2024/01/09 03:07:51;;;;;;;0.63;0.63;;;0.90;99.90;;;;;;5036318;28;20097;-71
2024/01/09 03:10:24;;;;;;;1.83;1.73;;;0.90;99.90;;;;;;5036315;28;20385;-70
2024/01/09 03:12:49;;;;;;;0.25;0.25;;;0.90;99.90;;;;;;5038503;28;20029;-70
2024/01/09 03:15:15;;;;;;;1.13;0.93;;;0.80;99.90;;;;;;5037629;28;20513;-71
2024/01/09 03:17:41;;;;;;;1.75;0.85;;;0.80;99.90;;;;;;5038591;28;20103;-72
2024/01/09 03:20:07;;;;;;;14.90;1.60;;;0.80;99.90;;;;;;5040611;28;20029;-72
2024/01/09 03:22:33;;;;;;;0.68;0.68;;;0.80;99.90;;;;;;5033689;28;20448;-70
2024/01/09 03:24:59;;;;;;;5.72;1.25;;;0.80;99.90;;;;;;5037911;28;20028;-70
2024/01/09 03:27:25;;;;;;;1.10;0.90;;;0.80;99.90;;;;;;5033303;28;20036;-70
2024/01/09 03:29:51;;;;;;;1.20;0.60;;;0.80;99.90;;;;;;5030524;28;20120;-70
2024/01/09 03:32:16;;;;;;;1.95;1.27;;;0.80;99.90;;;;;;5039409;28;20035;-70
2024/01/09 03:34:42;;;;;;;1.40;1.30;;;0.80;99.90;;;;;;5036142;28;22348;-70
2024/01/09 03:37:09;;;;;;;10.85;1.52;;;0.80;99.90;;;;;;5035990;28;21562;-71
2024/01/09 03:39:35;;;;;;;6.07;1.40;;;0.70;99.90;;;;;;5039936;28;20401;-70
2024/01/09 03:42:01;;;;;;;0.95;0.95;;;0.70;99.90;;;;;;5034341;28;20037;-70
2024/01/09 03:44:27;;;;;;;1.00;1.00;;;0.80;99.90;;;;;;5037653;28;20120;-70
2024/01/09 03:46:52;;;;;;;1.73;1.08;;;0.80;99.90;;;;;;5040350;28;20028;-71
2024/01/09 03:49:18;;;;;;;0.68;0.50;;;0.80;99.90;;;;;;5035934;28;20040;-71
2024/01/09 03:51:43;;;;;;;2.20;2.05;;;0.80;99.90;;;;;;5038184;28;20840;-71
2024/01/09 03:54:09;;;;;;;0.77;0.77;;;0.80;99.90;;;;;;5040006;28;20037;-71
2024/01/09 03:56:35;;;;;;;1.92;1.30;;;0.80;99.90;;;;;;5037519;28;20021;-70
2024/01/09 03:59:01;;;;;;;1.58;1.00;;;0.90;99.90;;;;;;5042582;28;20033;-70
2024/01/09 04:01:26;;;;;;;0.70;0.60;;;0.90;99.90;;;;;;5038617;28;20151;-70
2024/01/09 04:03:52;;;;;;;1.67;1.13;;;0.90;99.90;;;;;;5053302;28;20044;-69
2024/01/09 04:06:17;;;;;;;2.10;1.55;;;0.90;99.90;;;;;;5052185;28;20028;-71
2024/01/09 04:08:43;;;;;;;1.88;1.33;;;0.90;99.90;;;;;;5035225;28;20036;-69
2024/01/09 04:11:09;;;;;;;1.63;1.05;;;0.90;99.90;;;;;;5035045;28;20053;-70
2024/01/09 04:13:34;;;;;;;2.15;1.80;;;0.90;99.90;;;;;;5035142;28;20162;-70
2024/01/09 04:16:00;;;;;;;1.77;1.67;;;0.90;99.90;;;;;;5035065;28;20032;-70
2024/01/09 04:18:25;;;;;;;1.52;0.88;;;0.90;99.90;;;;;;5038643;28;20036;-71
2024/01/09 04:20:51;;;;;;;0.68;0.45;;;0.80;99.90;;;;;;5038674;28;20037;-71
2024/01/09 04:23:17;;;;;;;1.83;1.70;;;0.80;99.90;;;;;;5031468;28;20051;-70
2024/01/09 04:25:42;;;;;;;1.17;1.08;;;0.80;99.90;;;;;;5041018;28;20036;-70
2024/01/09 04:28:08;;;;;;;2.05;1.05;;;0.90;99.90;;;;;;5037710;28;20500;-71
2024/01/09 04:30:34;;;;;;;5.20;2.42;;;0.80;99.90;;;;;;5034611;28;20060;-70
2024/01/09 04:32:59;;;;;;;2.47;0.65;;;0.90;99.90;;;;;;5039398;28;20033;-71
2024/01/09 04:35:25;;;;;;;2.58;1.38;;;0.90;99.90;;;;;;5037039;28;20800;-69
2024/01/09 04:37:51;;;;;;;10.25;1.63;;;0.90;99.90;;;;;;5038290;28;21437;-69
2024/01/09 04:40:16;;;;;;;2.05;1.50;;;0.80;99.90;;;;;;5038666;28;20033;-70
2024/01/09 04:42:42;;;;;;;3.13;1.95;;;0.90;99.90;;;;;;5035644;28;20718;-71
2024/01/09 04:45:08;;;;;;;0.77;0.77;;;0.80;99.90;;;;;;5038081;28;20045;-71
2024/01/09 04:47:34;;;;;;;0.75;0.75;;;0.80;99.90;;;;;;5038914;28;20028;-72
2024/01/09 04:49:59;;;;;;;0.88;0.73;;;0.80;99.90;;;;;;5034196;28;20033;-70
2024/01/09 04:52:25;;;;;;;3.50;2.13;;;0.90;99.90;;;;;;5041253;28;20028;-70
2024/01/09 04:54:51;;;;;;;5.05;1.98;;;0.80;99.90;;;;;;5041496;28;20037;-71
2024/01/09 04:57:17;;;;;;;6.68;1.20;;;0.80;99.90;;;;;;5036440;28;20037;-71
2024/01/09 04:59:42;;;;;;;3.42;1.75;;;0.80;99.90;;;;;;5038929;28;20382;-71
2024/01/09 05:02:09;;;;;;;1.15;0.73;;;0.80;99.90;;;;;;5024083;28;20538;-70
2024/01/09 05:04:35;;;;;;;1.08;0.80;;;0.80;99.90;;;;;;5032112;28;20033;-71
2024/01/09 05:07:00;;;;;;;2.67;1.60;;;0.80;99.90;;;;;;5037742;28;20032;-70
2024/01/09 05:09:27;;;;;;;1.40;1.10;;;0.80;99.90;;;;;;5035478;28;20068;-70
2024/01/09 05:11:52;;;;;;;8.82;1.20;;;0.90;99.90;;;;;;5027092;28;20048;-71
2024/01/09 05:14:18;;;;;;;1.40;0.95;;;0.90;99.90;;;;;;5038773;28;20068;-70
2024/01/09 05:16:44;;;;;;;1.08;0.32;;;0.90;99.90;;;;;;5033734;28;20037;-71
2024/01/09 05:19:09;;;;;;;2.38;1.65;;;1.00;99.90;;;;;;5036998;28;20029;-69
2024/01/09 05:21:35;;;;;;;0.65;0.65;;;1.00;99.90;;;;;;5036554;28;20039;-70
2024/01/09 05:24:01;;;;;;;1.27;1.05;;;1.00;99.90;;;;;;5033271;28;20032;-71
2024/01/09 05:26:27;;;;;;;1.58;1.23;;;1.00;99.90;;;;;;5042581;28;20556;-71
2024/01/09 05:28:52;;;;;;;2.03;1.15;;;1.00;99.90;;;;;;5035332;28;20043;-70
2024/01/09 05:31:18;;;;;;;2.20;1.05;;;1.00;99.90;;;;;;5036973;28;20029;-71
2024/01/09 05:33:44;;;;;;;11.40;2.33;;;1.10;99.90;;;;;;5037647;28;20585;-70
2024/01/09 05:36:09;;;;;;;0.80;0.80;;;1.10;99.90;;;;;;5035988;28;20064;-69
2024/01/09 05:38:35;;;;;;;1.45;1.35;;;1.10;99.90;;;;;;5035231;28;20029;-71
2024/01/09 05:41:01;;;;;;;2.72;1.90;;;1.10;99.90;;;;;;5035754;28;20506;-69
2024/01/09 05:43:27;;;;;;;1.20;1.05;;;1.10;99.90;;;;;;5028130;28;20033;-71
2024/01/09 05:45:52;;;;;;;1.42;1.15;;;1.20;99.90;;;;;;5037454;28;20212;-71
2024/01/09 05:48:18;;;;;;;0.82;0.82;;;1.20;99.90;;;;;;5039098;28;20611;-71
2024/01/09 05:50:44;;;;;;;0.50;0.50;;;1.20;99.90;;;;;;5035077;28;20025;-70
2024/01/09 05:53:10;;;;;;;3.90;2.20;;;1.10;99.90;;;;;;5040728;28;20040;-70
2024/01/09 05:55:35;;;;;;;1.73;1.33;;;1.10;99.90;;;;;;5039351;28;20795;-71
2024/01/09 05:58:01;;;;;;;3.63;1.45;;;1.10;99.90;;;;;;5039514;28;20063;-70
2024/01/09 06:00:27;;;;;;;1.13;1.02;;;1.10;99.90;;;;;;5041692;28;20040;-70
2024/01/09 06:02:53;;;;;;;0.55;0.55;;;1.10;99.90;;;;;;5039241;28;20145;-70
2024/01/09 06:05:18;;;;;;;1.25;0.95;;;1.10;99.90;;;;;;5041843;28;20554;-70
2024/01/09 06:07:44;;;;;;;3.22;1.40;;;1.10;99.90;;;;;;5042744;28;20029;-71
2024/01/09 06:10:10;;;;;;;1.48;1.38;;;1.10;99.90;;;;;;5035563;28;20108;-71
2024/01/09 06:12:36;;;;;;;4.03;2.28;;;1.20;99.90;;;;;;5041398;28;20037;-70
2024/01/09 06:15:03;;;;;;;1.40;0.57;;;1.20;99.90;;;;;;5038815;28;20393;-69
2024/01/09 06:17:29;;;;;;;6.38;1.98;;;1.30;99.90;;;;;;5029173;28;20806;-71
2024/01/09 06:19:54;;;;;;;1.52;1.33;;;1.30;99.90;;;;;;5036689;28;20039;-71
2024/01/09 06:22:20;;;;;;;1.75;1.65;;;1.30;99.90;;;;;;5038632;28;20053;-70
2024/01/09 06:24:46;;;;;;;5.03;1.20;;;1.30;99.90;;;;;;5033305;28;20037;-70
2024/01/09 06:27:11;;;;;;;1.00;0.75;;;1.30;99.90;;;;;;5033420;28;20098;-70
2024/01/09 06:29:37;;;;;;;2.03;1.27;;;1.40;99.90;;;;;;5036654;28;20060;-70
2024/01/09 06:32:03;;;;;;;1.38;1.30;;;1.40;99.90;;;;;;5040146;28;20021;-71
2024/01/09 06:34:28;;;;;;;1.75;1.23;;;1.40;99.90;;;;;;5042016;28;20037;-71
2024/01/09 06:36:54;;;;;;;0.80;0.80;;;1.30;99.90;;;;;;5035841;28;20041;-69
2024/01/09 06:39:20;;;;;;;1.38;1.27;;;1.30;99.90;;;;;;5040143;28;20090;-70
2024/01/09 06:41:45;;;;;;;1.80;1.60;;;1.30;99.90;;;;;;5039537;28;20037;-70
2024/01/09 06:44:11;;;;;;;1.17;0.60;;;1.20;99.90;;;;;;5035364;28;20516;-70
2024/01/09 06:46:37;;;;;;;0.73;0.57;;;1.20;99.90;;;;;;5037534;28;20382;-71
2024/01/09 06:49:02;;;;;;;8.38;1.75;;;1.10;99.90;;;;;;5040101;28;20090;-70
2024/01/09 06:51:29;;;;;;;4.95;1.33;;;1.00;99.90;;;;;;5037803;28;20493;-70
2024/01/09 06:53:55;;;;;;;1.45;0.28;;;1.00;99.90;;;;;;5041448;28;20033;-70
2024/01/09 06:56:21;;;;;;;0.73;0.73;;;0.90;99.90;;;;;;5037273;28;20083;-70
2024/01/09 06:58:46;;;;;;;3.80;1.77;;;0.90;99.90;;;;;;5037197;28;20079;-70
2024/01/09 07:01:12;;;;;;;1.27;1.17;;;0.90;99.90;;;;;;5039441;28;20033;-70
2024/01/09 07:03:38;;;;;;;3.33;1.90;;;0.90;99.90;;;;;;5023433;28;20033;-70
2024/01/09 07:06:04;;;;;;;2.50;1.15;;;1.00;99.90;;;;;;5036957;28;20094;-70
2024/01/09 07:08:29;;;;;;;2.42;1.33;;;0.90;99.90;;;;;;5038019;28;20497;-70
2024/01/09 07:10:56;;;;;;;1.77;0.93;;;0.80;99.90;;;;;;5026754;28;20254;-70
2024/01/09 07:13:23;;;;;;;4.10;1.27;;;0.70;99.90;;;;;;5032348;28;20029;-71
2024/01/09 07:15:49;;;;;;;1.42;1.00;;;0.70;99.90;;;;;;5033310;28;20370;-70
2024/01/09 07:18:15;;;;;;;0.85;0.77;;;0.70;99.90;;;;;;5029604;28;20060;-70
2024/01/09 07:20:42;;;;;;;17.35;1.23;;;0.60;99.90;;;;;;5034495;28;20055;-70
2024/01/09 07:23:08;;;;;;;0.77;0.75;;;0.60;99.90;;;;;;5059640;28;20051;-69
2024/01/09 07:25:33;;;;;;;4.03;2.50;;;0.60;99.90;;;;;;5054896;28;20139;-70
2024/01/09 07:27:59;;;;;;;4.05;1.80;;;0.60;99.90;;;;;;5035972;28;20033;-70
2024/01/09 07:30:25;;;;;;;3.38;1.70;;;0.60;99.90;;;;;;5031889;28;20037;-69
2024/01/09 07:32:50;;;;;;;0.80;0.55;;;0.60;99.90;;;;;;5038275;28;20091;-71
2024/01/09 07:35:16;;;;;;;0.60;0.38;;;0.50;99.90;;;;;;5038605;28;20068;-71
2024/01/09 07:37:42;;;;;;;4.32;1.55;;;0.40;99.90;;;;;;5033120;28;20041;-71
2024/01/09 07:40:08;;;;;;;0.93;0.90;;;0.40;99.90;;;;;;5035391;28;20730;-71
2024/01/09 07:42:35;;;;;;;0.63;0.63;;;0.40;99.90;;;;;;5035844;28;20039;-71
2024/01/09 07:45:01;;;;;;;2.33;1.52;;;0.40;99.90;;;;;;5036169;28;20021;-71
2024/01/09 07:47:26;;;;;;;7.65;2.05;;;0.40;99.90;;;;;;5035313;28;20033;-71
2024/01/09 07:49:52;;;;;;;6.60;2.17;;;0.40;99.90;;;;;;5035587;28;20033;-70
2024/01/09 07:52:19;;;;;;;1.20;0.98;;;0.40;99.90;;;;;;5032032;28;20040;-70
2024/01/09 07:54:44;;;;;;;2.05;1.80;;;0.50;99.90;;;;;;5032530;28;20505;-70
2024/01/09 07:57:10;;;;;;;4.10;2.13;;;0.50;99.90;;;;;;5029973;28;20041;-71
2024/01/09 07:59:36;;;;;;;1.83;1.73;;;0.40;99.90;;;;;;5031313;28;20044;-71
2024/01/09 08:02:01;;;;;;;1.75;0.88;;;0.40;99.90;;;;;;5033088;28;20035;-70
2024/01/09 08:04:28;;;;;;;1.42;1.27;;;0.40;99.90;;;;;;5023352;28;20045;-70
2024/01/09 08:06:54;;;;;;;4.30;1.38;;;0.30;99.90;;;;;;5026380;28;20120;-70
2024/01/09 08:09:20;;;;;;;2.42;1.52;;;0.30;99.90;;;;;;5024827;28;20052;-69
2024/01/09 08:11:46;;;;;;;3.22;2.13;;;0.40;99.90;;;;;;5021908;28;20033;-72
2024/01/09 08:14:13;;;;;;;6.85;1.10;;;0.40;99.90;;;;;;5024005;28;20524;-73
2024/01/09 08:16:39;;;;;;;1.23;1.13;;;0.50;99.90;;;;;;5027315;28;20564;-72
2024/01/09 08:19:06;;;;;;;1.42;1.33;;;0.50;99.90;;;;;;5029293;28;20484;-70
2024/01/09 08:21:34;;;;;;;0.85;0.85;;;0.50;99.90;;;;;;5031451;28;20041;-70
2024/01/09 08:24:00;;;;;;;1.60;1.05;;;0.50;99.90;;;;;;5026190;28;20150;-70
2024/01/09 08:26:25;;;;;;;3.15;2.20;;;0.60;99.90;;;;;;5034130;28;20587;-69
2024/01/09 08:28:51;;;;;;;2.33;2.15;;;0.70;99.90;;;;;;5032099;28;20037;-70
2024/01/09 08:31:17;;;;;;;4.07;1.83;;;0.70;99.90;;;;;;5024739;28;20031;-70
2024/01/09 08:33:42;;;;;;;0.95;0.88;;;0.70;99.90;;;;;;5036015;28;20033;-69
2024/01/09 08:36:08;;;;;;;2.03;1.83;;;0.70;99.90;;;;;;5029192;28;20548;-69
2024/01/09 08:38:34;;;;;;;2.88;2.08;;;0.70;99.90;;;;;;5024081;28;20045;-73
2024/01/09 08:41:01;;;;;;;1.52;1.42;;;0.70;99.90;;;;;;5024981;28;20039;-72
2024/01/09 08:43:27;;;;;;;1.30;1.00;;;0.70;99.90;;;;;;5024898;28;20044;-71
2024/01/09 08:45:53;;;;;;;1.73;1.30;;;0.70;99.90;;;;;;5029695;28;20045;-70
2024/01/09 08:48:18;;;;;;;4.43;2.72;;;0.80;99.90;;;;;;5031689;28;20035;-72
2024/01/09 08:50:44;;;;;;;3.05;2.22;;;0.80;99.90;;;;;;5024945;28;20929;-71
2024/01/09 08:53:10;;;;;;;1.95;1.42;;;0.80;99.90;;;;;;5033749;28;20025;-71
2024/01/09 08:55:36;;;;;;;2.28;2.13;;;0.80;99.90;;;;;;5033158;28;20480;-72
2024/01/09 08:58:02;;;;;;;2.00;1.02;;;0.80;99.90;;;;;;5031021;28;20128;-76
2024/01/09 09:00:28;;;;;;;1.90;1.33;;;0.80;99.90;;;;;;5033487;28;20021;-74
2024/01/09 09:02:53;;;;;;;2.70;0.93;;;0.80;99.90;;;;;;5032856;28;20028;-72
2024/01/09 09:05:19;;;;;;;0.52;0.52;;;0.80;99.90;;;;;;5027529;28;20029;-73
2024/01/09 09:07:45;;;;;;;1.70;1.08;;;0.80;99.90;;;;;;5029869;28;20041;-72
2024/01/09 09:10:10;;;;;;;1.90;1.50;;;0.80;99.90;;;;;;5029278;28;20572;-72
2024/01/09 09:12:36;;;;;;;1.23;1.08;;;0.80;99.90;;;;;;5030378;28;20032;-71
2024/01/09 09:15:03;;;;;;;2.42;1.58;;;0.80;99.90;;;;;;5030689;28;20040;-73
2024/01/09 09:17:29;;;;;;;3.22;2.15;;;0.80;99.90;;;;;;5020950;28;21946;-71
2024/01/09 09:19:54;;;;;;;1.13;1.08;;;0.80;99.90;;;;;;5030638;28;20067;-72
2024/01/09 09:22:23;;;;;;;3.17;1.40;;;0.80;99.90;;;;;;5026856;28;20591;-72
2024/01/09 09:24:49;;;;;;;4.18;2.45;;;0.90;99.90;;;;;;5021515;28;20055;-72
2024/01/09 09:27:15;;;;;;;4.97;1.65;;;1.00;99.90;;;;;;5030801;28;20029;-74
2024/01/09 09:29:41;;;;;;;1.17;0.93;;;1.00;99.90;;;;;;5027824;28;20619;-72
2024/01/09 09:32:07;;;;;;;2.20;1.25;;;1.10;99.90;;;;;;5028903;28;20128;-72
2024/01/09 09:34:33;;;;;;;5.07;3.50;;;1.10;99.90;;;;;;5031449;28;20041;-71
2024/01/09 09:36:58;;;;;;;5.45;1.80;;;1.10;99.90;;;;;;5027072;28;20124;-72
2024/01/09 09:39:24;;;;;;;0.63;0.63;;;1.10;99.90;;;;;;5029735;28;20128;-72
2024/01/09 09:41:56;;;;;;;3.58;1.67;;;1.20;99.90;;;;;;5036701;28;20031;-72
2024/01/09 09:44:24;;;;;;;1.35;1.25;;;1.20;99.90;;;;;;5030891;28;20056;-71
2024/01/09 09:46:51;;;;;;;1.55;0.95;;;1.20;99.90;;;;;;5034119;28;20028;-73
2024/01/09 09:49:20;;;;;;;1.73;1.02;;;1.20;99.90;;;;;;5035215;28;20668;-73
2024/01/09 09:51:47;;;;;;;1.33;0.80;;;1.30;99.90;;;;;;5032367;28;20037;-72
2024/01/09 09:54:14;;;;;;;0.82;0.82;;;1.40;99.90;;;;;;5036245;28;20206;-73
2024/01/09 09:56:41;;;;;;;3.88;1.70;;;1.50;99.90;;;;;;5031530;28;20033;-72
2024/01/09 09:59:10;;;;;;;1.38;0.98;;;1.60;99.90;;;;;;5027364;28;20036;-72
2024/01/09 10:01:37;;;;;;;1.52;0.90;;;1.60;99.90;;;;;;5033386;28;20029;-71
2024/01/09 10:04:27;;;;;;;4.97;1.40;;;1.50;99.90;;;;;;5028589;28;20885;-72
2024/01/09 10:06:56;;;;;;;1.15;0.70;;;1.50;99.90;;;;;;5021806;28;20033;-70
2024/01/09 10:09:23;;;;;;;0.65;0.65;;;1.50;99.90;;;;;;5029337;28;20396;-71
2024/01/09 10:11:49;;;;;;;1.13;1.13;;;1.40;99.90;;;;;;5027673;28;20697;-72
2024/01/09 10:14:15;;;;;;;3.03;1.50;;;1.40;99.90;;;;;;5042944;28;20149;-73
2024/01/09 10:16:49;;;;;;;0.73;0.45;;;1.30;99.90;;;;;;5041629;28;20096;-74
2024/01/09 10:19:16;;;;;;;1.58;1.48;;;1.30;99.90;;;;;;5040375;28;21103;-73
2024/01/09 10:21:41;;;;;;;2.80;1.55;;;1.40;99.90;;;;;;5041590;28;20033;-74
2024/01/09 10:24:08;;;;;;;1.40;1.30;;;1.40;99.90;;;;;;5036114;28;20033;-73
2024/01/09 10:26:34;;;;;;;1.33;1.23;;;1.40;99.90;;;;;;5043978;28;20033;-70
2024/01/09 10:29:01;;;;;;;1.42;1.33;;;1.40;99.90;;;;;;5034337;28;20392;-69
2024/01/09 10:31:27;;;;;;;4.40;1.10;;;1.50;99.90;;;;;;5024690;28;20036;-69
2024/01/09 10:33:54;;;;;;;2.22;1.23;;;1.70;99.90;;;;;;5028788;28;20489;-69
2024/01/09 10:36:19;;;;;;;1.05;1.05;;;1.70;99.90;;;;;;5032573;28;20041;-70
2024/01/09 10:38:46;;;;;;;2.58;1.20;;;1.70;99.90;;;;;;5030662;28;20029;-70
2024/01/09 10:41:16;;;;;;;0.75;0.63;;;1.80;99.90;;;;;;5036571;28;20060;-69
2024/01/09 10:43:44;;;;;;;30.90;1.30;;;1.90;99.90;;;;;;5035322;28;20072;-70
2024/01/09 10:46:10;;;;;;;1.77;1.33;;;2.00;99.90;;;;;;5032932;28;20040;-71
2024/01/09 10:48:36;;;;;;;2.70;0.98;;;2.10;99.90;;;;;;5034235;28;20041;-69
2024/01/09 10:51:03;;;;;;;4.68;1.08;;;2.20;99.90;;;;;;5030855;28;20039;-69
2024/01/09 10:53:31;;;;;;;1.27;1.02;;;2.30;99.90;;;;;;5031949;28;20091;-69
2024/01/09 10:56:00;;;;;;;4.53;1.98;;;2.30;99.90;;;;;;5035540;28;20033;-69
2024/01/09 10:58:26;;;;;;;2.47;1.40;;;2.30;99.90;;;;;;5034323;28;20045;-69
2024/01/09 11:00:52;;;;;;;5.82;1.67;;;2.30;99.90;;;;;;5038677;28;20037;-70
2024/01/09 11:03:19;;;;;;;3.00;1.10;;;2.40;99.90;;;;;;5039587;28;20033;-71
2024/01/09 11:05:48;;;;;;;15.35;2.40;;;2.30;99.90;;;;;;5048305;28;20040;-69
2024/01/09 11:08:17;;;;;;;1.08;0.88;;;2.40;99.90;;;;;;5042025;28;20116;-69
2024/01/09 11:10:43;;;;;;;3.47;1.73;;;2.40;99.90;;;;;;5032367;28;20063;-70
2024/01/09 11:13:09;;;;;;;1.15;1.05;;;2.40;99.90;;;;;;5034408;28;20029;-72
2024/01/09 11:15:44;;;;;;;3.70;2.08;;;2.50;99.90;;;;;;5033656;28;20061;-73
2024/01/09 11:18:14;;;;;;;1.80;1.67;;;2.50;99.90;;;;;;5030287;28;20033;-73
2024/01/09 11:20:40;;;;;;;2.60;2.08;;;2.50;99.90;;;;;;5041975;28;20067;-73
2024/01/09 11:23:05;;;;;;;1.15;0.98;;;2.50;99.90;;;;;;5035669;28;20053;-71
2024/01/09 11:25:32;;;;;;;3.60;1.73;;;2.50;99.90;;;;;;5027192;28;20037;-72
2024/01/09 11:27:58;;;;;;;2.33;1.48;;;2.60;99.90;;;;;;5030446;28;20097;-72
2024/01/09 11:30:27;;;;;;;0.98;0.82;;;2.60;99.90;;;;;;5032461;28;20045;-72
2024/01/09 11:32:55;;;;;;;1.38;1.05;;;2.60;99.90;;;;;;5032767;28;20842;-73
2024/01/09 11:35:21;;;;;;;1.58;1.30;;;2.70;99.90;;;;;;5036806;28;20497;-73
2024/01/09 11:37:48;;;;;;;1.77;1.67;;;2.70;99.90;;;;;;5032174;28;20078;-71
2024/01/09 11:40:17;;;;;;;1.27;1.17;;;2.70;99.90;;;;;;5028986;28;20123;-72
2024/01/09 11:42:45;;;;;;;3.05;1.27;;;2.70;99.90;;;;;;5034346;28;20098;-73
2024/01/09 11:45:12;;;;;;;1.83;1.25;;;2.80;99.90;;;;;;5032513;28;20067;-71
2024/01/09 11:47:42;;;;;;;1.33;1.05;;;2.80;99.90;;;;;;5036126;28;20033;-73
2024/01/09 11:50:09;;;;;;;3.72;1.83;;;2.80;99.90;;;;;;5037488;28;20040;-72
2024/01/09 11:52:37;;;;;;;5.10;2.55;;;2.80;99.90;;;;;;5032465;28;20025;-70
2024/01/09 11:55:08;;;;;;;1.52;1.42;;;2.90;99.90;;;;;;5036138;28;20044;-70
2024/01/09 11:57:34;;;;;;;1.33;1.20;;;2.80;99.90;;;;;;5033146;28;20155;-69
2024/01/09 12:00:04;;;;;;;3.40;1.05;;;2.80;99.80;;;;;;5033132;28;20033;-70
2024/01/09 12:02:29;;;;;;;3.92;0.52;;;2.90;99.80;;;;;;5036273;28;20094;-69
2024/01/09 12:04:55;;;;;;;2.30;0.98;;;2.90;99.70;;;;;;5031971;28;20041;-70
2024/01/09 12:07:21;;;;;;;3.33;1.20;;;3.00;99.90;;;;;;5029465;28;20039;-71
2024/01/09 12:09:49;;;;;;;1.45;1.35;;;3.00;99.30;;;;;;5031532;28;20033;-71
2024/01/09 12:12:22;;;;;;;1.45;1.33;;;3.00;99.70;;;;;;5029730;28;20033;-72
2024/01/09 12:14:52;;;;;;;1.45;1.30;;;3.10;99.90;;;;;;5031613;28;20041;-71
2024/01/09 12:17:19;;;;;;;3.60;1.30;;;3.20;99.30;;;;;;5031461;28;20055;-71
2024/01/09 12:19:45;;;;;;;2.20;1.38;;;3.20;99.10;;;;;;5030844;28;20025;-71
2024/01/09 12:22:10;;;;;;;1.58;0.60;;;3.20;99.50;;;;;;5035505;28;20107;-71
2024/01/09 12:24:37;;;;;;;0.60;0.60;;;3.20;99.40;;;;;;5029874;28;20519;-72
2024/01/09 12:27:03;;;;;;;5.97;1.33;;;3.30;99.70;;;;;;5037422;28;20033;-71
2024/01/09 12:29:30;;;;;;;1.73;0.75;;;3.20;98.90;;;;;;5033747;28;20036;-72
2024/01/09 12:31:56;;;;;;;0.70;0.55;;;3.20;98.60;;;;;;5031615;28;21014;-72
2024/01/09 12:34:22;;;;;;;1.15;1.05;;;3.30;98.50;;;;;;5033086;28;20757;-73
2024/01/09 12:36:48;;;;;;;4.47;1.40;;;3.30;98.60;;;;;;5033886;28;20101;-72
2024/01/09 12:39:19;;;;;;;1.70;1.27;;;3.30;98.10;;;;;;5025067;28;20033;-71
2024/01/09 12:41:44;;;;;;;1.27;0.90;;;3.40;97.90;;;;;;5024735;28;20029;-74
2024/01/09 12:44:12;;;;;;;1.23;1.15;;;3.40;97.30;;;;;;5024312;28;20056;-74
2024/01/09 12:46:42;;;;;;;0.75;0.75;;;3.40;97.40;;;;;;5025402;28;20037;-73
2024/01/09 12:49:08;;;;;;;0.75;0.75;;;3.50;97.30;;;;;;5031693;28;20091;-76
2024/01/09 12:51:35;;;;;;;0.70;0.52;;;3.50;97.20;;;;;;5028329;28;20401;-76